Time;durP1;ratioP1;P1;durP2;ratioP2;P2;SDS_P1;SDS_P2;PMS_P1;PMS_P2;Temp;Humidity;BMP_temperature;BMP_pressure;BME280_temperature;BME280_humidity;BME280_pressure;Samples;Min_cycle;Max_cycle;Signal;HPM_P1;HPM_P2
2023/06/09 00:01:58;;;;;;;15.85;5.47;;;14.50;99.90;;;;;;4977869;28;20053;-92
2023/06/09 00:04:25;;;;;;;13.13;5.45;;;14.50;99.90;;;;;;4954558;28;20046;-90
2023/06/09 00:06:52;;;;;;;8.65;4.05;;;14.50;99.90;;;;;;4978105;28;20030;-92
2023/06/09 00:09:21;;;;;;;13.73;5.15;;;14.40;99.90;;;;;;4971296;28;20065;-91
2023/06/09 00:11:48;;;;;;;15.50;4.95;;;14.40;99.90;;;;;;4988168;28;20046;-91
2023/06/09 00:14:14;;;;;;;15.10;5.78;;;14.40;99.90;;;;;;4965578;28;20363;-91
2023/06/09 00:16:46;;;;;;;14.75;4.80;;;14.40;99.90;;;;;;4954493;28;20057;-92
2023/06/09 00:19:16;;;;;;;13.77;5.22;;;14.40;99.90;;;;;;4976081;28;20039;-90
2023/06/09 00:21:49;;;;;;;17.05;6.00;;;14.40;99.90;;;;;;4963023;28;20478;-91
2023/06/09 00:24:20;;;;;;;16.85;5.80;;;14.40;99.90;;;;;;4991876;28;20496;-91
2023/06/09 00:26:47;;;;;;;13.77;5.40;;;14.40;99.90;;;;;;4989800;28;20038;-90
2023/06/09 00:29:16;;;;;;;15.73;5.97;;;14.40;99.90;;;;;;4980422;28;20046;-91
2023/06/09 00:31:42;;;;;;;15.55;5.20;;;14.30;99.90;;;;;;4986704;28;20047;-91
2023/06/09 00:34:08;;;;;;;14.65;5.50;;;14.30;99.90;;;;;;4962563;28;20038;-91
2023/06/09 00:36:34;;;;;;;15.38;4.30;;;14.30;99.90;;;;;;4948793;28;20046;-91
2023/06/09 00:39:00;;;;;;;11.65;5.00;;;14.20;99.90;;;;;;4983351;28;20035;-90
2023/06/09 00:41:26;;;;;;;11.68;4.63;;;14.20;99.90;;;;;;4983117;28;20053;-91
2023/06/09 00:43:53;;;;;;;20.17;5.10;;;14.20;99.90;;;;;;4969124;28;20425;-92
2023/06/09 00:46:19;;;;;;;14.57;5.03;;;14.20;99.90;;;;;;4978523;28;20035;-90
2023/06/09 00:48:45;;;;;;;16.33;5.35;;;14.20;99.90;;;;;;4990158;28;20452;-90
2023/06/09 00:51:11;;;;;;;17.92;5.93;;;14.20;99.90;;;;;;4969057;28;20038;-91
2023/06/09 00:53:37;;;;;;;11.63;4.25;;;14.20;99.90;;;;;;4976540;28;20038;-88
2023/06/09 00:56:03;;;;;;;19.17;5.47;;;14.10;99.90;;;;;;4971406;28;20053;-89
2023/06/09 00:58:30;;;;;;;11.02;5.47;;;14.10;99.90;;;;;;4967431;28;20047;-90
2023/06/09 01:00:57;;;;;;;12.95;5.55;;;14.00;99.90;;;;;;4971805;28;20042;-91
2023/06/09 01:03:24;;;;;;;11.05;4.85;;;14.00;99.90;;;;;;4966832;28;20038;-92
2023/06/09 01:06:02;;;;;;;8.98;4.70;;;14.00;99.90;;;;;;4983706;28;20043;-91
2023/06/09 01:08:37;;;;;;;17.33;5.55;;;14.10;99.90;;;;;;4975517;28;20071;-92
2023/06/09 01:11:17;;;;;;;13.25;4.38;;;14.00;99.90;;;;;;4979565;28;20661;-91
2023/06/09 01:13:55;;;;;;;13.98;5.47;;;14.00;99.90;;;;;;4984283;28;20567;-92
2023/06/09 01:16:28;;;;;;;14.35;5.20;;;14.00;99.90;;;;;;4984514;28;20038;-91
2023/06/09 01:18:57;;;;;;;17.85;5.43;;;14.00;99.90;;;;;;4976533;28;20031;-91
2023/06/09 01:21:35;;;;;;;14.30;5.15;;;14.00;99.90;;;;;;4979800;28;20051;-92
2023/06/09 01:24:24;;;;;;;11.55;5.00;;;14.00;99.90;;;;;;4986035;28;20078;-91
2023/06/09 01:26:52;;;;;;;13.55;5.07;;;13.90;99.90;;;;;;4973881;28;20072;-91
2023/06/09 01:29:20;;;;;;;19.67;5.63;;;13.90;99.90;;;;;;4976046;28;20052;-92
2023/06/09 01:31:46;;;;;;;11.82;4.82;;;13.90;99.90;;;;;;4973397;28;20086;-91
2023/06/09 01:34:13;;;;;;;14.90;5.30;;;13.90;99.90;;;;;;4948235;28;20152;-91
2023/06/09 01:36:40;;;;;;;15.63;5.32;;;13.90;99.90;;;;;;4960129;28;20035;-91
2023/06/09 01:39:07;;;;;;;17.00;4.85;;;13.90;99.90;;;;;;4965326;28;20049;-91
2023/06/09 01:41:33;;;;;;;14.90;6.25;;;13.80;99.90;;;;;;4987419;28;20046;-91
2023/06/09 01:43:59;;;;;;;14.32;5.22;;;13.80;99.90;;;;;;4977299;28;20038;-92
2023/06/09 01:46:25;;;;;;;14.27;5.22;;;13.80;99.90;;;;;;4975989;28;20042;-91
2023/06/09 01:49:04;;;;;;;16.67;5.82;;;13.80;99.90;;;;;;4976824;28;20046;-91
2023/06/09 01:51:51;;;;;;;13.00;5.35;;;13.70;99.90;;;;;;4991245;28;20073;-91
2023/06/09 01:54:24;;;;;;;12.20;4.60;;;13.80;99.90;;;;;;4956430;28;20054;-91
2023/06/09 01:57:06;;;;;;;20.15;7.20;;;13.70;99.90;;;;;;4973460;28;20097;-92
2023/06/09 01:59:54;;;;;;;14.07;5.10;;;13.70;99.90;;;;;;4975499;28;20046;-92
2023/06/09 02:02:21;;;;;;;14.35;5.60;;;13.70;99.90;;;;;;4984142;28;20031;-92
2023/06/09 02:04:50;;;;;;;17.88;5.85;;;13.70;99.90;;;;;;4950604;28;20121;-90
2023/06/09 02:07:16;;;;;;;18.15;7.28;;;13.60;99.90;;;;;;4978716;28;20050;-91
2023/06/09 02:09:45;;;;;;;17.17;6.93;;;13.60;99.90;;;;;;4970399;28;20054;-93
2023/06/09 02:12:12;;;;;;;15.07;5.57;;;13.60;99.90;;;;;;4978261;28;20039;-92
2023/06/09 02:14:39;;;;;;;11.95;5.68;;;13.60;99.90;;;;;;4981230;28;20070;-91
2023/06/09 02:17:05;;;;;;;12.68;5.60;;;13.60;99.90;;;;;;4952740;28;20045;-91
2023/06/09 02:19:35;;;;;;;13.50;6.55;;;13.60;99.90;;;;;;4986466;28;20038;-93
2023/06/09 02:22:02;;;;;;;18.67;7.03;;;13.50;99.90;;;;;;4985714;28;20069;-91
2023/06/09 02:24:28;;;;;;;15.55;5.40;;;13.50;99.90;;;;;;4972978;28;20057;-91
2023/06/09 02:26:56;;;;;;;13.50;5.35;;;13.50;99.90;;;;;;4964654;28;20043;-92
2023/06/09 02:29:26;;;;;;;16.63;6.90;;;13.40;99.90;;;;;;4949738;28;20034;-91
2023/06/09 02:31:57;;;;;;;15.50;5.28;;;13.50;99.90;;;;;;4979375;28;20635;-90
2023/06/09 02:34:23;;;;;;;18.23;5.82;;;13.50;99.90;;;;;;4974321;28;20098;-91
2023/06/09 02:36:54;;;;;;;16.48;6.93;;;13.50;99.90;;;;;;4984140;28;20038;-91
2023/06/09 02:39:23;;;;;;;15.52;5.90;;;13.40;99.90;;;;;;4979107;28;20034;-93
2023/06/09 02:41:48;;;;;;;14.82;6.03;;;13.50;99.90;;;;;;4988144;28;20367;-91
2023/06/09 02:44:14;;;;;;;24.80;8.20;;;13.40;99.90;;;;;;4972312;28;20070;-92
2023/06/09 02:46:42;;;;;;;17.42;6.72;;;13.50;99.90;;;;;;4973163;28;20477;-91
2023/06/09 02:49:08;;;;;;;18.77;7.03;;;13.50;99.90;;;;;;4986838;28;20049;-92
2023/06/09 02:51:34;;;;;;;21.15;6.28;;;13.40;99.90;;;;;;4977097;28;20049;-91
2023/06/09 02:54:00;;;;;;;20.85;7.43;;;13.50;99.90;;;;;;4990525;28;20038;-92
2023/06/09 02:56:26;;;;;;;18.48;6.93;;;13.40;99.90;;;;;;4971413;28;20053;-92
2023/06/09 02:58:53;;;;;;;20.00;6.53;;;13.40;99.90;;;;;;4965795;28;20073;-92
2023/06/09 03:01:20;;;;;;;16.27;6.03;;;13.40;99.90;;;;;;4959558;28;20043;-91
2023/06/09 03:03:47;;;;;;;16.63;5.75;;;13.40;99.90;;;;;;4980034;28;20132;-92
2023/06/09 03:06:13;;;;;;;19.75;7.03;;;13.40;99.90;;;;;;4968919;28;20050;-93
2023/06/09 03:08:43;;;;;;;17.30;6.53;;;13.40;99.90;;;;;;4969275;28;20069;-92
2023/06/09 03:11:09;;;;;;;15.65;5.85;;;13.40;99.90;;;;;;4998109;28;20097;-92
2023/06/09 03:13:35;;;;;;;15.95;6.15;;;13.40;99.90;;;;;;4955735;28;20057;-91
2023/06/09 03:16:03;;;;;;;14.25;6.00;;;13.30;99.90;;;;;;4969789;28;20114;-92
2023/06/09 03:18:29;;;;;;;12.45;6.32;;;13.30;99.90;;;;;;4971100;28;20519;-91
2023/06/09 03:20:55;;;;;;;14.45;5.03;;;13.30;99.90;;;;;;4980287;28;20050;-91
2023/06/09 03:23:21;;;;;;;13.73;5.80;;;13.30;99.90;;;;;;4989065;28;20050;-91
2023/06/09 03:25:51;;;;;;;16.92;6.50;;;13.30;99.90;;;;;;4964420;28;20129;-91
2023/06/09 03:28:18;;;;;;;19.80;8.35;;;13.30;99.90;;;;;;4962170;28;20132;-92
2023/06/09 03:30:44;;;;;;;16.55;6.53;;;13.40;99.90;;;;;;4979013;28;20047;-92
2023/06/09 03:33:14;;;;;;;19.50;7.05;;;13.30;99.90;;;;;;4977112;28;20096;-93
2023/06/09 03:35:43;;;;;;;13.10;5.10;;;13.30;99.90;;;;;;4982001;28;20041;-91
2023/06/09 03:38:09;;;;;;;15.52;6.35;;;13.30;99.90;;;;;;4969000;28;20603;-93
2023/06/09 03:40:36;;;;;;;18.27;7.28;;;13.30;99.90;;;;;;4984574;28;20069;-93
2023/06/09 03:43:02;;;;;;;12.40;5.75;;;13.30;99.90;;;;;;4950575;28;20050;-93
2023/06/09 03:45:30;;;;;;;18.27;6.07;;;13.20;99.90;;;;;;4959371;28;20041;-92
2023/06/09 03:47:56;;;;;;;13.35;5.45;;;13.20;99.90;;;;;;4952588;28;20043;-92
2023/06/09 03:50:22;;;;;;;13.95;5.80;;;13.30;99.90;;;;;;4982587;28;20043;-93
2023/06/09 03:52:48;;;;;;;18.83;7.07;;;13.30;99.90;;;;;;4984521;28;20516;-93
2023/06/09 03:55:19;;;;;;;20.80;7.53;;;13.30;99.90;;;;;;4966487;28;20129;-94
2023/06/09 03:57:46;;;;;;;20.27;6.88;;;13.30;99.90;;;;;;4987039;28;20051;-94
2023/06/09 04:00:12;;;;;;;15.10;6.50;;;13.30;99.90;;;;;;4977375;28;20481;-92
2023/06/09 04:02:38;;;;;;;16.08;6.97;;;13.30;99.90;;;;;;4982105;28;20038;-93
2023/06/09 04:05:04;;;;;;;14.68;5.68;;;13.20;99.90;;;;;;4986445;28;20046;-92
2023/06/09 04:07:30;;;;;;;16.80;7.45;;;13.20;99.90;;;;;;4954126;28;20057;-93
2023/06/09 04:09:56;;;;;;;20.02;8.38;;;13.20;99.90;;;;;;4972279;28;20046;-92
2023/06/09 04:12:21;;;;;;;15.85;6.15;;;13.20;99.90;;;;;;4957903;28;20419;-92
2023/06/09 04:14:47;;;;;;;20.27;7.80;;;13.30;99.90;;;;;;4970825;28;20057;-92
2023/06/09 04:17:13;;;;;;;15.57;6.70;;;13.30;99.90;;;;;;4977144;28;20453;-93
2023/06/09 04:19:38;;;;;;;14.10;6.78;;;13.30;99.90;;;;;;4957780;28;20058;-92
2023/06/09 04:22:05;;;;;;;14.27;6.60;;;13.30;99.90;;;;;;4968486;28;20050;-92
2023/06/09 04:24:31;;;;;;;21.13;8.60;;;13.30;99.90;;;;;;4984136;28;20034;-93
2023/06/09 04:26:57;;;;;;;16.30;7.45;;;13.30;99.90;;;;;;4967629;28;20478;-93
2023/06/09 04:29:23;;;;;;;15.93;6.90;;;13.40;99.90;;;;;;4970002;28;20058;-91
2023/06/09 04:31:57;;;;;;;17.70;7.72;;;13.30;99.90;;;;;;4971480;28;20058;-93
2023/06/09 04:34:25;;;;;;;21.53;8.20;;;13.30;99.90;;;;;;4980144;28;20045;-93
2023/06/09 04:36:52;;;;;;;19.10;8.15;;;13.50;99.90;;;;;;4974375;28;20772;-92
2023/06/09 04:39:20;;;;;;;19.05;8.43;;;13.30;99.90;;;;;;4968515;28;20047;-92
2023/06/09 04:41:52;;;;;;;15.27;6.72;;;13.40;99.90;;;;;;4957372;28;20038;-93
2023/06/09 04:44:20;;;;;;;21.98;7.88;;;13.40;99.90;;;;;;4955484;28;20128;-93
2023/06/09 04:46:47;;;;;;;17.80;7.75;;;13.40;99.90;;;;;;4969975;28;20110;-93
2023/06/09 04:49:13;;;;;;;20.48;7.97;;;13.40;99.90;;;;;;4963353;28;20474;-91
2023/06/09 04:51:46;;;;;;;19.35;7.35;;;13.40;99.90;;;;;;4975333;28;20443;-92
2023/06/09 04:54:13;;;;;;;21.17;8.18;;;13.50;99.90;;;;;;4973615;28;20065;-91
2023/06/09 04:56:40;;;;;;;19.25;8.38;;;13.50;99.90;;;;;;4965359;28;20113;-83
2023/06/09 04:59:07;;;;;;;22.90;9.55;;;13.50;99.90;;;;;;4968580;28;20043;-83
2023/06/09 05:01:33;;;;;;;21.50;8.50;;;13.50;99.90;;;;;;4970745;28;20118;-83
2023/06/09 05:04:00;;;;;;;20.40;7.53;;;13.60;99.90;;;;;;4964876;28;20073;-83
2023/06/09 05:06:26;;;;;;;20.10;8.93;;;13.60;99.90;;;;;;4968557;28;20046;-83
2023/06/09 05:08:51;;;;;;;16.08;7.22;;;13.60;99.90;;;;;;4958925;28;20039;-83
2023/06/09 05:11:17;;;;;;;21.55;8.93;;;13.60;99.90;;;;;;4978651;28;20039;-83
2023/06/09 05:13:43;;;;;;;16.00;7.00;;;13.60;99.90;;;;;;4976307;28;20046;-82
2023/06/09 05:16:08;;;;;;;17.83;8.52;;;13.60;99.90;;;;;;4975524;28;20042;-83
2023/06/09 05:18:34;;;;;;;14.88;7.20;;;13.70;99.90;;;;;;4958652;28;20049;-83
2023/06/09 05:21:00;;;;;;;22.05;9.32;;;13.70;99.90;;;;;;4958932;28;20075;-84
2023/06/09 05:23:25;;;;;;;23.75;10.15;;;13.70;99.90;;;;;;4964066;28;20145;-83
2023/06/09 05:25:51;;;;;;;18.83;8.57;;;13.80;99.90;;;;;;4970081;28;20042;-84
2023/06/09 05:28:17;;;;;;;24.13;9.75;;;13.80;99.90;;;;;;4966381;28;20114;-83
2023/06/09 05:30:42;;;;;;;19.45;8.02;;;13.70;99.90;;;;;;4965011;28;20093;-83
2023/06/09 05:33:08;;;;;;;17.67;8.82;;;13.80;99.90;;;;;;4963869;28;20116;-83
2023/06/09 05:35:34;;;;;;;16.98;8.50;;;13.80;99.90;;;;;;4974636;28;20034;-83
2023/06/09 05:37:59;;;;;;;19.90;9.57;;;13.90;99.90;;;;;;4963521;28;20139;-84
2023/06/09 05:40:25;;;;;;;15.88;8.32;;;13.90;99.90;;;;;;4969693;28;20065;-84
2023/06/09 05:42:51;;;;;;;22.40;9.73;;;14.00;99.90;;;;;;4954714;28;20508;-83
2023/06/09 05:45:16;;;;;;;29.58;11.05;;;14.00;99.90;;;;;;4946915;28;20046;-83
2023/06/09 05:47:42;;;;;;;22.70;9.98;;;14.00;99.90;;;;;;4973365;28;20039;-84
2023/06/09 05:50:08;;;;;;;17.35;7.75;;;14.10;99.90;;;;;;4967222;28;20035;-83
2023/06/09 05:52:34;;;;;;;24.80;11.07;;;14.10;99.90;;;;;;4974520;28;20081;-83
2023/06/09 05:55:00;;;;;;;20.83;10.40;;;14.10;99.90;;;;;;4979320;28;20066;-82
2023/06/09 05:57:29;;;;;;;23.67;10.32;;;14.20;99.90;;;;;;4984445;28;20046;-90
2023/06/09 05:59:56;;;;;;;18.90;10.70;;;14.30;99.90;;;;;;4972659;28;20031;-91
2023/06/09 06:02:23;;;;;;;19.77;10.65;;;14.30;99.90;;;;;;4985335;28;20046;-92
2023/06/09 06:04:49;;;;;;;22.55;11.27;;;14.30;99.90;;;;;;4998654;28;20061;-94
2023/06/09 06:12:28;;;;;;;17.75;10.15;;;14.40;99.90;;;;;;6088997;23;20061;-88
2023/06/09 06:15:05;;;;;;;20.65;10.10;;;14.90;99.90;;;;;;5519652;22;20024;-95
2023/06/09 06:17:31;;;;;;;22.40;10.48;;;14.40;99.90;;;;;;5190549;23;20062;-96
2023/06/09 06:19:58;;;;;;;23.30;9.90;;;14.50;99.90;;;;;;5101696;23;20142;-96
2023/06/09 06:22:24;;;;;;;18.75;8.02;;;15.00;99.90;;;;;;4999822;23;20172;-93
2023/06/09 06:24:58;;;;;;;18.00;8.43;;;15.00;99.90;;;;;;4979072;28;20056;-94
2023/06/09 06:27:27;;;;;;;20.20;10.03;;;14.50;99.90;;;;;;4984433;28;20333;-96
2023/06/09 06:29:53;;;;;;;17.50;9.27;;;14.90;99.90;;;;;;5008049;28;20133;-96
2023/06/09 06:32:38;;;;;;;22.75;10.25;;;14.60;99.90;;;;;;4967694;28;20051;-96
2023/06/09 06:35:04;;;;;;;;;;;14.80;99.90;;;;;;5028855;23;20054;-96
2023/06/09 06:45:40;;;;;;;23.38;9.82;;;15.10;99.90;;;;;;5284936;22;20513;-95
2023/06/09 06:48:06;;;;;;;20.23;9.80;;;15.10;99.90;;;;;;4999034;28;20054;-94
2023/06/09 06:50:32;;;;;;;19.35;9.70;;;15.20;99.90;;;;;;4991272;28;20069;-93
2023/06/09 06:52:58;;;;;;;17.65;9.57;;;15.20;99.90;;;;;;4995433;28;20062;-94
2023/06/09 06:55:24;;;;;;;19.73;8.93;;;15.30;99.90;;;;;;5010248;28;20042;-92
2023/06/09 06:57:50;;;;;;;20.30;9.25;;;15.40;99.90;;;;;;4989528;28;20026;-93
2023/06/09 07:00:16;;;;;;;23.92;9.13;;;15.40;99.90;;;;;;5005839;28;20100;-91
2023/06/09 07:02:46;;;;;;;16.05;8.05;;;15.50;99.90;;;;;;5001968;28;20046;-96
2023/06/09 07:05:12;;;;;;;18.33;7.88;;;15.60;99.90;;;;;;4993536;28;20205;-93
2023/06/09 07:07:38;;;;;;;17.52;8.75;;;15.70;99.90;;;;;;5002517;28;20043;-85
2023/06/09 07:10:04;;;;;;;18.75;8.98;;;15.90;99.90;;;;;;4999572;28;20049;-85
2023/06/09 07:12:32;;;;;;;19.80;8.40;;;16.00;99.90;;;;;;5053197;23;20050;-92
2023/06/09 07:15:09;;;;;;;18.83;8.38;;;16.20;99.90;;;;;;4982439;28;20038;-96
2023/06/09 07:17:38;;;;;;;17.08;7.90;;;16.50;99.90;;;;;;4996821;28;20193;-93
2023/06/09 07:20:04;;;;;;;13.48;7.10;;;16.90;99.90;;;;;;4990299;28;20478;-93
2023/06/09 07:22:33;;;;;;;13.85;7.05;;;17.20;99.90;;;;;;4961559;28;20050;-92
2023/06/09 07:24:59;;;;;;;18.75;7.57;;;17.50;99.90;;;;;;4982877;28;20046;-94
2023/06/09 07:27:25;;;;;;;17.95;7.15;;;17.80;99.90;;;;;;4995685;28;20074;-93
2023/06/09 07:29:51;;;;;;;15.50;6.95;;;18.00;99.90;;;;;;5340128;23;20058;-94
2023/06/09 07:32:17;;;;;;;15.43;7.05;;;18.30;99.90;;;;;;4997172;28;20057;-93
2023/06/09 07:34:43;;;;;;;13.65;6.53;;;18.50;99.90;;;;;;5005018;28;20046;-94
2023/06/09 07:37:09;;;;;;;15.57;6.18;;;18.70;99.90;;;;;;5013045;28;20050;-92
2023/06/09 07:39:36;;;;;;;15.10;6.25;;;18.90;99.90;;;;;;4997544;28;20039;-94
2023/06/09 07:42:02;;;;;;;14.40;5.68;;;19.00;99.90;;;;;;5000798;28;20054;-94
2023/06/09 07:44:28;;;;;;;13.70;6.25;;;19.20;99.90;;;;;;4989622;28;20042;-95
2023/06/09 07:46:54;;;;;;;16.40;6.32;;;19.40;99.90;;;;;;5014712;28;20607;-96
2023/06/09 07:49:19;;;;;;;15.20;6.32;;;19.50;99.90;;;;;;4998596;28;20068;-94
2023/06/09 07:51:49;;;;;;;14.05;6.05;;;19.70;99.90;;;;;;5006309;28;20050;-95
2023/06/09 07:54:15;;;;;;;15.00;6.55;;;19.80;99.90;;;;;;5009591;28;20050;-95
2023/06/09 07:56:41;;;;;;;12.02;5.45;;;19.90;99.90;;;;;;5012199;28;20078;-96
2023/06/09 07:59:07;;;;;;;14.23;5.72;;;20.00;99.90;;;;;;5012421;28;20057;-96
2023/06/09 08:01:33;;;;;;;12.10;5.78;;;20.10;99.90;;;;;;4993064;28;20038;-96
2023/06/09 08:04:02;;;;;;;13.70;5.55;;;20.20;99.90;;;;;;5002423;28;20069;-95
2023/06/09 08:06:29;;;;;;;17.83;5.70;;;20.40;99.90;;;;;;5011115;28;20045;-95
2023/06/09 08:08:55;;;;;;;16.60;6.53;;;20.50;99.90;;;;;;4998929;28;20093;-96
2023/06/09 08:11:20;;;;;;;13.23;5.93;;;20.60;99.90;;;;;;4995057;28;20038;-95
2023/06/09 08:13:46;;;;;;;13.15;5.53;;;20.70;99.90;;;;;;5012671;28;20053;-95
2023/06/09 08:16:12;;;;;;;13.07;5.55;;;20.80;99.90;;;;;;4993053;28;20062;-96
2023/06/09 08:18:37;;;;;;;13.63;6.28;;;20.80;99.90;;;;;;5003514;28;20104;-96
2023/06/09 08:21:04;;;;;;;14.98;5.88;;;20.90;99.90;;;;;;5007469;28;20061;-96
2023/06/09 08:23:30;;;;;;;13.52;5.22;;;21.00;99.90;;;;;;5013977;28;20045;-96
2023/06/09 08:25:55;;;;;;;13.15;5.43;;;21.10;99.90;;;;;;4989207;28;20445;-95
2023/06/09 08:28:21;;;;;;;12.93;5.88;;;21.10;99.90;;;;;;5009265;28;20034;-96
2023/06/09 08:30:47;;;;;;;12.60;5.13;;;21.10;99.90;;;;;;5012571;28;20490;-96
2023/06/09 08:33:12;;;;;;;14.45;4.93;;;21.20;99.90;;;;;;4996154;28;20034;-96
2023/06/09 08:35:38;;;;;;;14.65;5.57;;;21.30;99.90;;;;;;4996098;28;20038;-96
2023/06/09 08:38:04;;;;;;;11.75;4.82;;;21.30;99.90;;;;;;4987774;28;20049;-96
2023/06/09 08:40:29;;;;;;;12.13;5.15;;;21.40;99.90;;;;;;5003553;28;20053;-96
2023/06/09 08:42:58;;;;;;;9.88;5.20;;;21.40;99.90;;;;;;4989345;28;20046;-96
2023/06/09 08:45:25;;;;;;;14.18;5.22;;;21.50;99.90;;;;;;4986797;28;20132;-90
2023/06/09 08:47:54;;;;;;;16.38;5.10;;;21.50;99.90;;;;;;4990478;28;20034;-92
2023/06/09 08:50:27;;;;;;;13.30;5.00;;;21.70;99.90;;;;;;5000027;28;20070;-94
2023/06/09 08:52:55;;;;;;;12.80;5.18;;;21.80;99.90;;;;;;5010314;28;20752;-92
2023/06/09 08:55:21;;;;;;;14.30;5.07;;;21.90;99.90;;;;;;4995612;28;20085;-93
2023/06/09 08:57:48;;;;;;;11.85;4.40;;;21.90;99.90;;;;;;4993667;28;20037;-94
2023/06/09 09:00:15;;;;;;;11.45;4.90;;;22.00;99.90;;;;;;4987823;28;20046;-93
2023/06/09 09:02:43;;;;;;;12.30;4.60;;;22.10;99.90;;;;;;5006710;28;20388;-93
2023/06/09 09:05:12;;;;;;;10.93;4.57;;;22.20;99.90;;;;;;5008554;28;20050;-94
2023/06/09 09:07:39;;;;;;;11.20;3.92;;;22.30;99.90;;;;;;4994497;28;20050;-94
2023/06/09 09:10:05;;;;;;;13.52;5.20;;;22.40;99.90;;;;;;4996104;28;20039;-94
2023/06/09 09:12:48;;;;;;;12.30;4.55;;;22.50;99.90;;;;;;4990651;28;20126;-94
2023/06/09 09:15:14;;;;;;;12.55;4.68;;;22.60;99.90;;;;;;4993158;28;20097;-94
2023/06/09 09:17:40;;;;;;;14.73;4.70;;;22.70;99.90;;;;;;5003281;28;20046;-94
2023/06/09 09:20:07;;;;;;;16.00;4.78;;;22.90;99.90;;;;;;4996561;28;20042;-96
2023/06/09 09:22:47;;;;;;;8.85;4.80;;;22.90;99.90;;;;;;4996876;28;20046;-95
2023/06/09 09:25:25;;;;;;;13.15;5.00;;;23.10;99.90;;;;;;4996194;28;20056;-94
2023/06/09 09:27:59;;;;;;;10.32;4.25;;;23.20;99.90;;;;;;5003800;28;20065;-94
2023/06/09 09:30:45;;;;;;;9.23;4.13;;;23.30;99.90;;;;;;4999930;28;20066;-95
2023/06/09 09:33:18;;;;;;;10.35;4.57;;;23.50;99.90;;;;;;4993540;28;20104;-95
2023/06/09 09:35:53;;;;;;;11.50;4.63;;;23.50;99.90;;;;;;4992279;28;20038;-95
2023/06/09 09:38:30;;;;;;;16.83;4.95;;;23.60;99.90;;;;;;5004150;28;20072;-96
2023/06/09 09:40:57;;;;;;;12.02;4.50;;;23.70;99.90;;;;;;5014824;28;20610;-95
2023/06/09 09:43:30;;;;;;;11.55;4.30;;;23.80;99.90;;;;;;4995939;28;20041;-96
2023/06/09 09:45:59;;;;;;;9.23;4.50;;;23.90;99.90;;;;;;5012784;28;20062;-95
2023/06/09 09:48:25;;;;;;;10.75;5.07;;;24.00;99.90;;;;;;5017302;28;20042;-95
2023/06/09 09:50:53;;;;;;;13.73;4.07;;;24.10;99.90;;;;;;4984828;28;20038;-95
2023/06/09 09:53:23;;;;;;;10.57;4.28;;;24.30;99.90;;;;;;4996084;28;20050;-94
2023/06/09 09:55:59;;;;;;;9.60;4.05;;;24.30;99.90;;;;;;5012690;28;20038;-94
2023/06/09 09:58:29;;;;;;;8.77;4.20;;;24.40;99.90;;;;;;5001936;28;20508;-95
2023/06/09 10:21:35;;;;;;;13.52;4.80;;;25.40;99.40;;;;;;5858838;23;20045;-94
2023/06/09 10:26:49;;;;;;;12.55;4.57;;;25.60;99.10;;;;;;5273952;22;19925;-92
2023/06/09 10:47:43;;;;;;;10.10;4.25;;;26.40;97.90;;;;;;5463010;23;20107;-94
2023/06/09 10:50:22;;;;;;;9.18;3.90;;;26.60;97.30;;;;;;4954864;28;20142;-93
2023/06/09 10:52:54;;;;;;;8.68;4.22;;;26.60;97.20;;;;;;4982087;28;20495;-95
2023/06/09 10:55:22;;;;;;;8.95;4.03;;;26.70;97.10;;;;;;4996396;28;20504;-96
2023/06/09 10:57:50;;;;;;;9.40;4.43;;;26.80;96.90;;;;;;5010327;28;20067;-90
2023/06/09 11:00:20;;;;;;;8.77;4.13;;;26.80;96.90;;;;;;4986533;28;20111;-89
2023/06/09 11:03:11;;;;;;;16.63;4.68;;;26.90;96.80;;;;;;4993419;28;20045;-90
2023/06/09 11:05:42;;;;;;;8.98;4.68;;;27.00;96.30;;;;;;4986960;28;20042;-95
2023/06/09 11:08:07;;;;;;;11.48;4.38;;;27.10;95.90;;;;;;4980638;28;20043;-89
2023/06/09 11:10:35;;;;;;;9.27;4.40;;;27.20;96.00;;;;;;4987922;28;20077;-89
2023/06/09 11:13:22;;;;;;;9.07;3.90;;;27.20;96.20;;;;;;4984619;28;20047;-88
2023/06/09 11:15:57;;;;;;;7.85;4.07;;;27.20;96.50;;;;;;4988335;28;20125;-88
2023/06/09 11:18:23;;;;;;;10.70;3.90;;;27.30;95.70;;;;;;5003853;28;20042;-87
2023/06/09 11:21:16;;;;;;;7.40;4.00;;;27.40;95.60;;;;;;4984956;28;20133;-87
2023/06/09 11:24:01;;;;;;;8.20;4.45;;;27.50;95.40;;;;;;5001861;28;20081;-87
2023/06/09 11:26:27;;;;;;;8.00;4.20;;;27.60;95.20;;;;;;5018811;28;20038;-96
2023/06/09 11:28:54;;;;;;;7.50;3.85;;;27.70;95.00;;;;;;5007209;28;20046;-96
2023/06/09 11:31:20;;;;;;;8.40;4.10;;;27.70;94.90;;;;;;5002006;28;20046;-96
2023/06/09 11:33:55;;;;;;;7.78;3.85;;;27.80;94.90;;;;;;5001343;28;20050;-94
2023/06/09 11:36:27;;;;;;;10.95;4.10;;;27.90;94.80;;;;;;4989943;28;20505;-96
2023/06/09 11:38:58;;;;;;;6.65;4.13;;;28.00;94.70;;;;;;5019648;28;20105;-95
2023/06/09 11:41:24;;;;;;;8.85;3.85;;;28.10;94.70;;;;;;4999366;28;20133;-95
2023/06/09 11:43:52;;;;;;;8.63;4.65;;;28.10;94.60;;;;;;5004198;28;20033;-95
2023/06/09 11:46:18;;;;;;;6.88;4.35;;;28.20;94.60;;;;;;5018988;28;20048;-96
2023/06/09 11:49:04;;;;;;;8.55;4.53;;;28.30;94.20;;;;;;5000448;28;20058;-96
2023/06/09 11:51:56;;;;;;;8.65;3.63;;;28.40;93.90;;;;;;5015442;28;20050;-96
2023/06/09 12:49:31;;;;;;;9.73;4.43;;;29.50;92.30;;;;;;806623;23;20342;-97
2023/06/09 12:51:58;;;;;;;8.07;4.38;;;29.50;92.00;;;;;;4946456;29;20051;-96
2023/06/09 12:54:29;;;;;;;9.30;4.15;;;29.60;92.00;;;;;;4960917;29;20055;-96
2023/06/09 12:56:55;;;;;;;8.57;4.43;;;29.70;92.10;;;;;;4949738;29;20056;-96
2023/06/09 12:59:22;;;;;;;9.35;4.50;;;29.70;91.80;;;;;;4950113;29;20061;-96
2023/06/09 13:01:48;;;;;;;7.85;4.63;;;29.70;91.70;;;;;;4945359;29;20054;-96
2023/06/09 13:04:15;;;;;;;8.30;4.15;;;29.70;91.80;;;;;;4941927;29;20046;-96
2023/06/09 13:06:41;;;;;;;10.65;4.30;;;29.70;92.20;;;;;;4956774;29;20071;-96
2023/06/09 13:09:07;;;;;;;8.63;4.50;;;29.70;91.70;;;;;;4943888;29;20046;-92
2023/06/09 13:14:11;;;;;;;9.05;4.47;;;29.70;91.70;;;;;;5475413;23;20052;31
2023/06/09 13:16:42;;;;;;;8.50;4.50;;;29.80;91.90;;;;;;4988646;28;20051;-96
2023/06/09 13:19:25;;;;;;;8.40;4.30;;;29.80;91.70;;;;;;4979829;28;20027;-96
2023/06/09 13:22:02;;;;;;;7.00;4.00;;;29.90;91.40;;;;;;4998522;28;20042;-96
2023/06/09 13:24:33;;;;;;;;;;;30.00;91.30;;;;;;4974702;28;20035;-96
2023/06/09 13:27:09;;;;;;;9.50;4.60;;;30.00;91.30;;;;;;4974822;28;19922;-96
2023/06/09 13:29:41;;;;;;;7.72;4.22;;;30.00;91.40;;;;;;4979499;28;20031;-96
2023/06/09 13:32:09;;;;;;;8.77;4.30;;;30.10;91.00;;;;;;5074770;23;20034;-96
2023/06/09 13:34:42;;;;;;;6.95;4.20;;;30.20;91.20;;;;;;5001777;28;20042;-96
2023/06/09 13:40:30;;;;;;;9.52;4.22;;;30.30;91.60;;;;;;5041030;23;20046;-96
2023/06/09 13:45:32;;;;;;;9.57;4.18;;;30.40;91.00;;;;;;5124071;23;20046;-96
2023/06/09 13:53:27;;;;;;;9.10;4.30;;;30.40;90.10;;;;;;5668164;22;20036;-96
2023/06/09 13:56:02;;;;;;;11.93;4.20;;;30.50;90.70;;;;;;5034445;28;20054;-96
2023/06/09 14:01:04;;;;;;;12.00;4.60;;;30.50;91.10;;;;;;5095459;23;20080;-96
2023/06/09 14:03:35;;;;;;;11.23;4.60;;;30.60;91.10;;;;;;5028053;28;20046;-96
2023/06/09 14:06:09;;;;;;;13.95;4.80;;;30.70;91.30;;;;;;5003822;28;20101;-96
2023/06/09 14:08:55;;;;;;;8.80;3.90;;;30.70;91.10;;;;;;5011309;28;20042;-96
2023/06/09 14:11:26;;;;;;;9.13;4.15;;;30.70;91.20;;;;;;5007411;28;20038;-96
2023/06/09 14:13:52;;;;;;;9.38;5.13;;;30.70;91.70;;;;;;5001248;28;20052;-96
2023/06/09 14:16:21;;;;;;;7.57;4.28;;;30.70;91.10;;;;;;5034467;28;20033;-96
2023/06/09 14:19:12;;;;;;;9.73;4.22;;;30.70;91.40;;;;;;5015500;28;20089;-96
2023/06/09 14:21:40;;;;;;;7.55;3.85;;;30.70;91.10;;;;;;4984744;28;20122;-96
2023/06/09 14:24:07;;;;;;;9.90;4.15;;;30.80;92.10;;;;;;4997057;28;20049;-96
2023/06/09 14:26:38;;;;;;;11.63;4.53;;;30.80;91.40;;;;;;5014263;28;20065;-96
2023/06/09 14:29:13;;;;;;;9.75;4.20;;;30.80;91.00;;;;;;5014174;28;20038;-96
2023/06/09 14:31:39;;;;;;;7.60;4.53;;;30.80;91.50;;;;;;5004792;28;20085;-96
2023/06/09 14:34:06;;;;;;;7.97;4.30;;;30.70;91.50;;;;;;5041039;28;20127;-96
2023/06/09 14:36:52;;;;;;;;;;;;;;;;;;;;;
2023/06/09 14:39:22;;;;;;;6.53;4.50;;;30.70;91.60;;;;;;5003257;28;20061;-96
2023/06/09 14:41:49;;;;;;;7.32;4.63;;;30.80;91.20;;;;;;5187065;23;20105;-96
2023/06/09 14:44:32;;;;;;;7.38;4.75;;;30.80;91.00;;;;;;5052596;23;20057;-96
2023/06/09 14:47:03;;;;;;;13.50;4.07;;;30.80;91.40;;;;;;5251858;23;20062;-96
2023/06/09 14:49:38;;;;;;;9.45;4.20;;;30.80;90.90;;;;;;5082002;23;20044;-96
2023/06/09 14:52:10;;;;;;;8.38;4.53;;;30.70;90.80;;;;;;5021810;23;20046;-96
2023/06/09 14:57:11;;;;;;;11.02;4.68;;;30.70;90.80;;;;;;5081482;22;20057;-96
2023/06/09 14:59:40;;;;;;;10.55;4.15;;;30.70;91.30;;;;;;5023227;28;20552;-96